sensor_id;sensor_type;location;lat;lon;timestamp;P1;durP1;ratioP1;P2;durP2;ratioP2
19621;SDS011;9958;33.196;-97.114;2023-12-04T00:02:15;1.80;;;1.15;;
19621;SDS011;9958;33.196;-97.114;2023-12-04T00:04:43;1.15;;;0.88;;
19621;SDS011;9958;33.196;-97.114;2023-12-04T00:07:13;1.52;;;0.90;;
19621;SDS011;9958;33.196;-97.114;2023-12-04T00:09:41;0.98;;;0.82;;
19621;SDS011;9958;33.196;-97.114;2023-12-04T00:12:10;1.88;;;1.40;;
19621;SDS011;9958;33.196;-97.114;2023-12-04T00:14:38;3.20;;;1.02;;
19621;SDS011;9958;33.196;-97.114;2023-12-04T00:17:06;1.92;;;1.30;;
19621;SDS011;9958;33.196;-97.114;2023-12-04T00:19:35;4.50;;;1.55;;
19621;SDS011;9958;33.196;-97.114;2023-12-04T00:22:03;3.08;;;1.23;;
19621;SDS011;9958;33.196;-97.114;2023-12-04T00:24:33;2.65;;;1.58;;
19621;SDS011;9958;33.196;-97.114;2023-12-04T00:27:01;1.13;;;1.00;;
19621;SDS011;9958;33.196;-97.114;2023-12-04T00:29:30;1.70;;;1.20;;
19621;SDS011;9958;33.196;-97.114;2023-12-04T00:31:58;2.35;;;1.10;;
19621;SDS011;9958;33.196;-97.114;2023-12-04T00:34:27;1.52;;;1.10;;
19621;SDS011;9958;33.196;-97.114;2023-12-04T00:36:55;2.00;;;0.95;;
19621;SDS011;9958;33.196;-97.114;2023-12-04T00:39:23;2.30;;;1.05;;
19621;SDS011;9958;33.196;-97.114;2023-12-04T00:41:53;1.65;;;0.80;;
19621;SDS011;9958;33.196;-97.114;2023-12-04T00:44:21;1.40;;;1.00;;
19621;SDS011;9958;33.196;-97.114;2023-12-04T00:46:50;0.70;;;0.70;;
19621;SDS011;9958;33.196;-97.114;2023-12-04T00:49:18;1.23;;;0.90;;
19621;SDS011;9958;33.196;-97.114;2023-12-04T00:51:46;1.30;;;0.90;;
19621;SDS011;9958;33.196;-97.114;2023-12-04T00:54:15;1.08;;;1.08;;
19621;SDS011;9958;33.196;-97.114;2023-12-04T00:56:43;0.85;;;0.77;;
19621;SDS011;9958;33.196;-97.114;2023-12-04T00:59:13;0.88;;;0.88;;
19621;SDS011;9958;33.196;-97.114;2023-12-04T01:01:41;0.77;;;0.77;;
19621;SDS011;9958;33.196;-97.114;2023-12-04T01:04:10;1.50;;;0.77;;
19621;SDS011;9958;33.196;-97.114;2023-12-04T01:06:38;1.77;;;1.00;;
19621;SDS011;9958;33.196;-97.114;2023-12-04T01:09:06;1.02;;;0.90;;
19621;SDS011;9958;33.196;-97.114;2023-12-04T01:11:35;1.95;;;1.15;;
19621;SDS011;9958;33.196;-97.114;2023-12-04T01:14:03;1.45;;;1.08;;
19621;SDS011;9958;33.196;-97.114;2023-12-04T01:16:33;1.00;;;0.90;;
19621;SDS011;9958;33.196;-97.114;2023-12-04T01:19:02;1.70;;;1.30;;
19621;SDS011;9958;33.196;-97.114;2023-12-04T01:21:30;1.20;;;1.08;;
19621;SDS011;9958;33.196;-97.114;2023-12-04T01:23:58;1.40;;;1.30;;
19621;SDS011;9958;33.196;-97.114;2023-12-04T01:26:26;1.45;;;1.15;;
19621;SDS011;9958;33.196;-97.114;2023-12-04T01:28:55;1.83;;;1.50;;
19621;SDS011;9958;33.196;-97.114;2023-12-04T01:31:23;2.13;;;1.60;;
19621;SDS011;9958;33.196;-97.114;2023-12-04T01:33:53;1.40;;;1.27;;
19621;SDS011;9958;33.196;-97.114;2023-12-04T01:36:21;2.05;;;1.30;;
19621;SDS011;9958;33.196;-97.114;2023-12-04T01:38:50;2.53;;;1.30;;
19621;SDS011;9958;33.196;-97.114;2023-12-04T01:41:18;2.95;;;1.60;;
19621;SDS011;9958;33.196;-97.114;2023-12-04T01:43:46;1.35;;;1.23;;
19621;SDS011;9958;33.196;-97.114;2023-12-04T01:46:15;1.45;;;1.33;;
19621;SDS011;9958;33.196;-97.114;2023-12-04T01:48:45;1.73;;;1.40;;
19621;SDS011;9958;33.196;-97.114;2023-12-04T01:51:15;3.03;;;1.27;;
19621;SDS011;9958;33.196;-97.114;2023-12-04T01:53:46;1.67;;;1.20;;
19621;SDS011;9958;33.196;-97.114;2023-12-04T01:56:15;2.08;;;1.10;;
19621;SDS011;9958;33.196;-97.114;2023-12-04T01:58:44;4.22;;;1.23;;
19621;SDS011;9958;33.196;-97.114;2023-12-04T02:01:13;1.45;;;1.27;;
19621;SDS011;9958;33.196;-97.114;2023-12-04T02:03:41;1.30;;;1.02;;
19621;SDS011;9958;33.196;-97.114;2023-12-04T02:06:10;2.05;;;1.00;;
19621;SDS011;9958;33.196;-97.114;2023-12-04T02:08:42;1.70;;;1.40;;
19621;SDS011;9958;33.196;-97.114;2023-12-04T02:11:11;1.38;;;1.20;;
19621;SDS011;9958;33.196;-97.114;2023-12-04T02:13:39;2.40;;;1.20;;
19621;SDS011;9958;33.196;-97.114;2023-12-04T02:16:09;2.28;;;1.30;;
19621;SDS011;9958;33.196;-97.114;2023-12-04T02:18:39;1.15;;;1.05;;
19621;SDS011;9958;33.196;-97.114;2023-12-04T02:21:08;1.02;;;0.93;;
19621;SDS011;9958;33.196;-97.114;2023-12-04T02:23:36;1.10;;;1.00;;
19621;SDS011;9958;33.196;-97.114;2023-12-04T02:26:08;0.90;;;0.88;;
19621;SDS011;9958;33.196;-97.114;2023-12-04T02:28:41;0.95;;;0.88;;
19621;SDS011;9958;33.196;-97.114;2023-12-04T02:31:17;1.05;;;0.90;;
19621;SDS011;9958;33.196;-97.114;2023-12-04T02:33:47;2.67;;;1.00;;
19621;SDS011;9958;33.196;-97.114;2023-12-04T02:36:19;0.95;;;0.77;;
19621;SDS011;9958;33.196;-97.114;2023-12-04T02:38:50;0.88;;;0.80;;
19621;SDS011;9958;33.196;-97.114;2023-12-04T02:41:20;1.60;;;1.00;;
19621;SDS011;9958;33.196;-97.114;2023-12-04T02:43:48;0.82;;;0.80;;
19621;SDS011;9958;33.196;-97.114;2023-12-04T02:46:17;1.38;;;0.82;;
19621;SDS011;9958;33.196;-97.114;2023-12-04T02:48:45;3.35;;;1.25;;
19621;SDS011;9958;33.196;-97.114;2023-12-04T02:51:13;1.27;;;1.17;;
19621;SDS011;9958;33.196;-97.114;2023-12-04T02:53:42;2.28;;;1.40;;
19621;SDS011;9958;33.196;-97.114;2023-12-04T02:56:10;5.75;;;1.23;;
19621;SDS011;9958;33.196;-97.114;2023-12-04T02:58:40;2.22;;;1.17;;
19621;SDS011;9958;33.196;-97.114;2023-12-04T03:01:09;1.38;;;1.13;;
19621;SDS011;9958;33.196;-97.114;2023-12-04T03:03:37;4.30;;;1.00;;
19621;SDS011;9958;33.196;-97.114;2023-12-04T03:06:06;1.40;;;1.30;;
19621;SDS011;9958;33.196;-97.114;2023-12-04T03:08:34;2.30;;;1.13;;
19621;SDS011;9958;33.196;-97.114;2023-12-04T03:11:03;1.48;;;1.08;;
19621;SDS011;9958;33.196;-97.114;2023-12-04T03:13:31;1.55;;;1.45;;
19621;SDS011;9958;33.196;-97.114;2023-12-04T03:16:02;1.27;;;1.05;;
19621;SDS011;9958;33.196;-97.114;2023-12-04T03:18:31;2.15;;;1.00;;
19621;SDS011;9958;33.196;-97.114;2023-12-04T03:20:59;1.58;;;0.93;;
19621;SDS011;9958;33.196;-97.114;2023-12-04T03:23:27;1.95;;;1.17;;
19621;SDS011;9958;33.196;-97.114;2023-12-04T03:25:55;1.73;;;1.15;;
19621;SDS011;9958;33.196;-97.114;2023-12-04T03:28:24;1.35;;;0.95;;
19621;SDS011;9958;33.196;-97.114;2023-12-04T03:30:52;0.90;;;0.75;;
19621;SDS011;9958;33.196;-97.114;2023-12-04T03:33:22;2.53;;;1.02;;
19621;SDS011;9958;33.196;-97.114;2023-12-04T03:35:50;0.80;;;0.80;;
19621;SDS011;9958;33.196;-97.114;2023-12-04T03:38:19;2.20;;;0.93;;
19621;SDS011;9958;33.196;-97.114;2023-12-04T03:40:47;0.70;;;0.70;;
19621;SDS011;9958;33.196;-97.114;2023-12-04T03:43:15;1.15;;;0.75;;
19621;SDS011;9958;33.196;-97.114;2023-12-04T03:45:43;0.82;;;0.70;;
19621;SDS011;9958;33.196;-97.114;2023-12-04T03:48:12;0.57;;;0.57;;
19621;SDS011;9958;33.196;-97.114;2023-12-04T03:50:42;0.65;;;0.50;;
19621;SDS011;9958;33.196;-97.114;2023-12-04T03:53:10;0.68;;;0.68;;
19621;SDS011;9958;33.196;-97.114;2023-12-04T03:55:38;0.50;;;0.50;;
19621;SDS011;9958;33.196;-97.114;2023-12-04T03:58:07;0.85;;;0.75;;
19621;SDS011;9958;33.196;-97.114;2023-12-04T04:00:35;0.70;;;0.70;;
19621;SDS011;9958;33.196;-97.114;2023-12-04T04:03:06;0.70;;;0.40;;
19621;SDS011;9958;33.196;-97.114;2023-12-04T04:05:35;1.75;;;0.65;;
19621;SDS011;9958;33.196;-97.114;2023-12-04T04:08:05;0.63;;;0.52;;
19621;SDS011;9958;33.196;-97.114;2023-12-04T04:10:33;0.55;;;0.55;;
19621;SDS011;9958;33.196;-97.114;2023-12-04T04:13:01;1.23;;;0.77;;
19621;SDS011;9958;33.196;-97.114;2023-12-04T04:15:30;0.65;;;0.65;;
19621;SDS011;9958;33.196;-97.114;2023-12-04T04:17:58;0.45;;;0.45;;
19621;SDS011;9958;33.196;-97.114;2023-12-04T04:20:26;1.10;;;0.57;;
19621;SDS011;9958;33.196;-97.114;2023-12-04T04:22:55;0.50;;;0.50;;
19621;SDS011;9958;33.196;-97.114;2023-12-04T04:25:24;0.60;;;0.60;;
19621;SDS011;9958;33.196;-97.114;2023-12-04T04:27:53;0.85;;;0.70;;
19621;SDS011;9958;33.196;-97.114;2023-12-04T04:30:21;0.45;;;0.45;;
19621;SDS011;9958;33.196;-97.114;2023-12-04T04:32:49;2.85;;;0.73;;
19621;SDS011;9958;33.196;-97.114;2023-12-04T04:35:18;0.60;;;0.60;;
19621;SDS011;9958;33.196;-97.114;2023-12-04T04:37:46;0.65;;;0.55;;
19621;SDS011;9958;33.196;-97.114;2023-12-04T04:40:14;1.55;;;0.50;;
19621;SDS011;9958;33.196;-97.114;2023-12-04T04:42:45;0.50;;;0.50;;
19621;SDS011;9958;33.196;-97.114;2023-12-04T04:45:14;2.50;;;0.68;;
19621;SDS011;9958;33.196;-97.114;2023-12-04T04:47:42;0.55;;;0.55;;
19621;SDS011;9958;33.196;-97.114;2023-12-04T04:50:10;0.50;;;0.35;;
19621;SDS011;9958;33.196;-97.114;2023-12-04T04:52:39;0.57;;;0.45;;
19621;SDS011;9958;33.196;-97.114;2023-12-04T04:55:08;0.38;;;0.38;;
19621;SDS011;9958;33.196;-97.114;2023-12-04T04:57:36;0.50;;;0.50;;
19621;SDS011;9958;33.196;-97.114;2023-12-04T05:00:07;1.05;;;0.40;;
19621;SDS011;9958;33.196;-97.114;2023-12-04T05:02:35;0.52;;;0.52;;
19621;SDS011;9958;33.196;-97.114;2023-12-04T05:05:04;0.30;;;0.30;;
19621;SDS011;9958;33.196;-97.114;2023-12-04T05:07:33;0.50;;;0.50;;
19621;SDS011;9958;33.196;-97.114;2023-12-04T05:10:01;0.52;;;0.50;;
19621;SDS011;9958;33.196;-97.114;2023-12-04T05:12:30;0.38;;;0.30;;
19621;SDS011;9958;33.196;-97.114;2023-12-04T05:14:58;2.17;;;0.38;;
19621;SDS011;9958;33.196;-97.114;2023-12-04T05:17:28;0.88;;;0.50;;
19621;SDS011;9958;33.196;-97.114;2023-12-04T05:19:57;1.85;;;0.55;;
19621;SDS011;9958;33.196;-97.114;2023-12-04T05:22:25;0.55;;;0.47;;
19621;SDS011;9958;33.196;-97.114;2023-12-04T05:24:54;1.10;;;0.30;;
19621;SDS011;9958;33.196;-97.114;2023-12-04T05:27:22;0.57;;;0.50;;
19621;SDS011;9958;33.196;-97.114;2023-12-04T05:29:50;0.25;;;0.25;;
19621;SDS011;9958;33.196;-97.114;2023-12-04T05:32:19;0.75;;;0.40;;
19621;SDS011;9958;33.196;-97.114;2023-12-04T05:34:49;0.52;;;0.40;;
19621;SDS011;9958;33.196;-97.114;2023-12-04T05:37:17;1.13;;;0.40;;
19621;SDS011;9958;33.196;-97.114;2023-12-04T05:39:45;0.88;;;0.82;;
19621;SDS011;9958;33.196;-97.114;2023-12-04T05:42:14;1.95;;;0.45;;
19621;SDS011;9958;33.196;-97.114;2023-12-04T05:44:42;0.98;;;0.35;;
19621;SDS011;9958;33.196;-97.114;2023-12-04T05:47:10;1.85;;;0.50;;
19621;SDS011;9958;33.196;-97.114;2023-12-04T05:49:40;1.75;;;0.40;;
19621;SDS011;9958;33.196;-97.114;2023-12-04T05:52:09;1.17;;;0.40;;
19621;SDS011;9958;33.196;-97.114;2023-12-04T05:54:38;0.20;;;0.20;;
19621;SDS011;9958;33.196;-97.114;2023-12-04T05:57:06;0.40;;;0.40;;
19621;SDS011;9958;33.196;-97.114;2023-12-04T05:59:34;0.75;;;0.40;;
19621;SDS011;9958;33.196;-97.114;2023-12-04T06:02:03;0.30;;;0.30;;
19621;SDS011;9958;33.196;-97.114;2023-12-04T06:04:31;0.30;;;0.30;;
19621;SDS011;9958;33.196;-97.114;2023-12-04T06:06:59;0.30;;;0.30;;
19621;SDS011;9958;33.196;-97.114;2023-12-04T06:09:29;0.15;;;0.15;;
19621;SDS011;9958;33.196;-97.114;2023-12-04T06:11:58;0.20;;;0.20;;
19621;SDS011;9958;33.196;-97.114;2023-12-04T06:14:33;0.95;;;0.30;;
19621;SDS011;9958;33.196;-97.114;2023-12-04T06:17:01;0.22;;;0.20;;
19621;SDS011;9958;33.196;-97.114;2023-12-04T06:19:31;3.30;;;0.50;;
19621;SDS011;9958;33.196;-97.114;2023-12-04T06:21:59;0.20;;;0.20;;
19621;SDS011;9958;33.196;-97.114;2023-12-04T06:24:30;1.92;;;0.40;;
19621;SDS011;9958;33.196;-97.114;2023-12-04T06:26:58;0.40;;;0.38;;
19621;SDS011;9958;33.196;-97.114;2023-12-04T06:29:27;2.67;;;0.35;;
19621;SDS011;9958;33.196;-97.114;2023-12-04T06:31:56;0.40;;;0.40;;
19621;SDS011;9958;33.196;-97.114;2023-12-04T06:34:25;0.70;;;0.38;;
19621;SDS011;9958;33.196;-97.114;2023-12-04T06:36:54;0.55;;;0.40;;
19621;SDS011;9958;33.196;-97.114;2023-12-04T06:39:23;0.13;;;0.13;;
19621;SDS011;9958;33.196;-97.114;2023-12-04T06:41:56;0.40;;;0.38;;
19621;SDS011;9958;33.196;-97.114;2023-12-04T06:44:24;0.60;;;0.28;;
19621;SDS011;9958;33.196;-97.114;2023-12-04T06:46:53;1.20;;;0.60;;
19621;SDS011;9958;33.196;-97.114;2023-12-04T06:49:24;0.70;;;0.40;;
19621;SDS011;9958;33.196;-97.114;2023-12-04T06:51:55;0.43;;;0.30;;
19621;SDS011;9958;33.196;-97.114;2023-12-04T06:54:23;0.38;;;0.38;;
19621;SDS011;9958;33.196;-97.114;2023-12-04T06:56:51;0.25;;;0.25;;
19621;SDS011;9958;33.196;-97.114;2023-12-04T06:59:21;0.55;;;0.35;;
19621;SDS011;9958;33.196;-97.114;2023-12-04T07:01:50;0.70;;;0.30;;
19621;SDS011;9958;33.196;-97.114;2023-12-04T07:04:18;2.08;;;0.38;;
19621;SDS011;9958;33.196;-97.114;2023-12-04T07:06:47;0.82;;;0.40;;
19621;SDS011;9958;33.196;-97.114;2023-12-04T07:09:16;0.25;;;0.20;;
19621;SDS011;9958;33.196;-97.114;2023-12-04T07:11:44;0.30;;;0.30;;
19621;SDS011;9958;33.196;-97.114;2023-12-04T07:14:13;0.40;;;0.40;;
19621;SDS011;9958;33.196;-97.114;2023-12-04T07:16:43;1.05;;;0.40;;
19621;SDS011;9958;33.196;-97.114;2023-12-04T07:19:11;3.83;;;0.20;;
19621;SDS011;9958;33.196;-97.114;2023-12-04T07:21:41;2.72;;;0.40;;
19621;SDS011;9958;33.196;-97.114;2023-12-04T07:24:10;0.20;;;0.20;;
19621;SDS011;9958;33.196;-97.114;2023-12-04T07:26:38;3.67;;;0.40;;
19621;SDS011;9958;33.196;-97.114;2023-12-04T07:29:07;0.20;;;0.20;;
19621;SDS011;9958;33.196;-97.114;2023-12-04T07:31:35;2.97;;;0.50;;
19621;SDS011;9958;33.196;-97.114;2023-12-04T07:34:05;0.57;;;0.30;;
19621;SDS011;9958;33.196;-97.114;2023-12-04T07:36:34;1.05;;;0.38;;
19621;SDS011;9958;33.196;-97.114;2023-12-04T07:39:02;2.35;;;0.38;;
19621;SDS011;9958;33.196;-97.114;2023-12-04T07:41:32;0.40;;;0.30;;
19621;SDS011;9958;33.196;-97.114;2023-12-04T07:44:01;1.55;;;0.30;;
19621;SDS011;9958;33.196;-97.114;2023-12-04T07:46:29;2.90;;;0.38;;
19621;SDS011;9958;33.196;-97.114;2023-12-04T07:48:57;0.38;;;0.30;;
19621;SDS011;9958;33.196;-97.114;2023-12-04T07:51:27;0.70;;;0.20;;
19621;SDS011;9958;33.196;-97.114;2023-12-04T07:53:55;0.25;;;0.25;;
19621;SDS011;9958;33.196;-97.114;2023-12-04T07:56:24;0.17;;;0.17;;
19621;SDS011;9958;33.196;-97.114;2023-12-04T07:58:52;1.60;;;0.30;;
19621;SDS011;9958;33.196;-97.114;2023-12-04T08:01:20;1.77;;;0.30;;
19621;SDS011;9958;33.196;-97.114;2023-12-04T08:03:50;3.72;;;0.80;;
19621;SDS011;9958;33.196;-97.114;2023-12-04T08:06:18;0.60;;;0.40;;
19621;SDS011;9958;33.196;-97.114;2023-12-04T08:08:48;0.15;;;0.15;;
19621;SDS011;9958;33.196;-97.114;2023-12-04T08:11:16;4.78;;;0.30;;
19621;SDS011;9958;33.196;-97.114;2023-12-04T08:13:45;1.90;;;0.30;;
19621;SDS011;9958;33.196;-97.114;2023-12-04T08:16:13;2.80;;;1.15;;
19621;SDS011;9958;33.196;-97.114;2023-12-04T08:18:42;9.02;;;0.80;;
19621;SDS011;9958;33.196;-97.114;2023-12-04T08:21:10;1.80;;;0.30;;
19621;SDS011;9958;33.196;-97.114;2023-12-04T08:23:39;0.50;;;0.50;;
19621;SDS011;9958;33.196;-97.114;2023-12-04T08:26:08;1.15;;;0.45;;
19621;SDS011;9958;33.196;-97.114;2023-12-04T08:28:37;0.28;;;0.28;;
19621;SDS011;9958;33.196;-97.114;2023-12-04T08:31:07;3.05;;;0.30;;
19621;SDS011;9958;33.196;-97.114;2023-12-04T08:33:35;0.35;;;0.32;;
19621;SDS011;9958;33.196;-97.114;2023-12-04T08:36:04;1.00;;;0.30;;
19621;SDS011;9958;33.196;-97.114;2023-12-04T08:38:33;1.50;;;0.40;;
19621;SDS011;9958;33.196;-97.114;2023-12-04T08:41:01;1.33;;;0.17;;
19621;SDS011;9958;33.196;-97.114;2023-12-04T08:43:32;0.52;;;0.22;;
19621;SDS011;9958;33.196;-97.114;2023-12-04T08:46:00;0.30;;;0.30;;
19621;SDS011;9958;33.196;-97.114;2023-12-04T08:48:29;7.93;;;0.45;;
19621;SDS011;9958;33.196;-97.114;2023-12-04T08:50:58;0.55;;;0.30;;
19621;SDS011;9958;33.196;-97.114;2023-12-04T08:53:26;1.08;;;0.47;;
19621;SDS011;9958;33.196;-97.114;2023-12-04T08:55:54;2.83;;;0.40;;
19621;SDS011;9958;33.196;-97.114;2023-12-04T08:58:23;0.32;;;0.30;;
19621;SDS011;9958;33.196;-97.114;2023-12-04T09:00:53;0.57;;;0.25;;
19621;SDS011;9958;33.196;-97.114;2023-12-04T09:03:21;0.60;;;0.25;;
19621;SDS011;9958;33.196;-97.114;2023-12-04T09:05:50;0.20;;;0.20;;
19621;SDS011;9958;33.196;-97.114;2023-12-04T09:08:18;1.85;;;0.30;;
19621;SDS011;9958;33.196;-97.114;2023-12-04T09:10:47;1.60;;;0.30;;
19621;SDS011;9958;33.196;-97.114;2023-12-04T09:13:15;1.38;;;0.43;;
19621;SDS011;9958;33.196;-97.114;2023-12-04T09:15:43;0.30;;;0.30;;
19621;SDS011;9958;33.196;-97.114;2023-12-04T09:18:13;0.35;;;0.20;;
19621;SDS011;9958;33.196;-97.114;2023-12-04T09:20:42;3.00;;;0.25;;
19621;SDS011;9958;33.196;-97.114;2023-12-04T09:23:10;1.80;;;0.30;;
19621;SDS011;9958;33.196;-97.114;2023-12-04T09:25:39;0.90;;;0.35;;
19621;SDS011;9958;33.196;-97.114;2023-12-04T09:28:07;3.20;;;0.38;;
19621;SDS011;9958;33.196;-97.114;2023-12-04T09:30:35;1.75;;;0.60;;
19621;SDS011;9958;33.196;-97.114;2023-12-04T09:33:04;2.42;;;0.25;;
19621;SDS011;9958;33.196;-97.114;2023-12-04T09:35:34;2.40;;;0.55;;
19621;SDS011;9958;33.196;-97.114;2023-12-04T09:38:03;3.70;;;0.47;;
19621;SDS011;9958;33.196;-97.114;2023-12-04T09:40:32;0.25;;;0.22;;
19621;SDS011;9958;33.196;-97.114;2023-12-04T09:43:00;0.40;;;0.40;;
19621;SDS011;9958;33.196;-97.114;2023-12-04T09:45:29;3.28;;;0.60;;
19621;SDS011;9958;33.196;-97.114;2023-12-04T09:48:00;0.17;;;0.17;;
19621;SDS011;9958;33.196;-97.114;2023-12-04T09:50:28;0.60;;;0.30;;
19621;SDS011;9958;33.196;-97.114;2023-12-04T09:52:58;0.50;;;0.50;;
19621;SDS011;9958;33.196;-97.114;2023-12-04T09:55:28;0.10;;;0.10;;
19621;SDS011;9958;33.196;-97.114;2023-12-04T09:57:57;0.80;;;0.20;;
19621;SDS011;9958;33.196;-97.114;2023-12-04T10:00:25;2.20;;;0.47;;
19621;SDS011;9958;33.196;-97.114;2023-12-04T10:02:55;1.30;;;0.35;;
19621;SDS011;9958;33.196;-97.114;2023-12-04T10:05:25;1.45;;;0.30;;
19621;SDS011;9958;33.196;-97.114;2023-12-04T10:07:53;0.20;;;0.20;;
19621;SDS011;9958;33.196;-97.114;2023-12-04T10:10:23;1.10;;;0.65;;
19621;SDS011;9958;33.196;-97.114;2023-12-04T10:12:51;0.10;;;0.10;;
19621;SDS011;9958;33.196;-97.114;2023-12-04T10:15:19;2.05;;;0.28;;
19621;SDS011;9958;33.196;-97.114;2023-12-04T10:17:48;0.17;;;0.17;;
19621;SDS011;9958;33.196;-97.114;2023-12-04T10:20:16;2.53;;;0.45;;
19621;SDS011;9958;33.196;-97.114;2023-12-04T10:22:52;1.52;;;0.43;;
19621;SDS011;9958;33.196;-97.114;2023-12-04T10:25:23;0.77;;;0.43;;
19621;SDS011;9958;33.196;-97.114;2023-12-04T10:27:54;1.95;;;0.52;;
19621;SDS011;9958;33.196;-97.114;2023-12-04T10:30:33;0.22;;;0.22;;
19621;SDS011;9958;33.196;-97.114;2023-12-04T10:33:02;2.72;;;0.40;;
19621;SDS011;9958;33.196;-97.114;2023-12-04T10:35:32;0.68;;;0.38;;
19621;SDS011;9958;33.196;-97.114;2023-12-04T10:38:02;6.05;;;0.50;;
19621;SDS011;9958;33.196;-97.114;2023-12-04T10:40:33;3.40;;;0.30;;
19621;SDS011;9958;33.196;-97.114;2023-12-04T10:43:11;0.30;;;0.28;;
19621;SDS011;9958;33.196;-97.114;2023-12-04T10:45:43;1.48;;;0.40;;
19621;SDS011;9958;33.196;-97.114;2023-12-04T10:48:12;0.25;;;0.25;;
19621;SDS011;9958;33.196;-97.114;2023-12-04T10:50:42;1.00;;;0.43;;
19621;SDS011;9958;33.196;-97.114;2023-12-04T10:53:14;3.80;;;0.40;;
19621;SDS011;9958;33.196;-97.114;2023-12-04T10:55:44;0.77;;;0.63;;
19621;SDS011;9958;33.196;-97.114;2023-12-04T10:58:15;2.45;;;0.30;;
19621;SDS011;9958;33.196;-97.114;2023-12-04T11:00:44;1.77;;;0.57;;
19621;SDS011;9958;33.196;-97.114;2023-12-04T11:03:15;0.52;;;0.30;;
19621;SDS011;9958;33.196;-97.114;2023-12-04T11:05:49;0.47;;;0.38;;
19621;SDS011;9958;33.196;-97.114;2023-12-04T11:08:22;1.83;;;0.70;;
19621;SDS011;9958;33.196;-97.114;2023-12-04T11:10:56;0.20;;;0.20;;
19621;SDS011;9958;33.196;-97.114;2023-12-04T11:13:27;5.45;;;0.45;;
19621;SDS011;9958;33.196;-97.114;2023-12-04T11:15:59;0.40;;;0.40;;
19621;SDS011;9958;33.196;-97.114;2023-12-04T11:18:31;1.02;;;0.40;;
19621;SDS011;9958;33.196;-97.114;2023-12-04T11:21:05;1.02;;;0.10;;
19621;SDS011;9958;33.196;-97.114;2023-12-04T11:23:35;0.52;;;0.43;;
19621;SDS011;9958;33.196;-97.114;2023-12-04T11:26:07;0.88;;;0.38;;
19621;SDS011;9958;33.196;-97.114;2023-12-04T11:28:36;0.40;;;0.30;;
19621;SDS011;9958;33.196;-97.114;2023-12-04T11:31:05;0.85;;;0.30;;
19621;SDS011;9958;33.196;-97.114;2023-12-04T11:33:35;0.20;;;0.20;;
19621;SDS011;9958;33.196;-97.114;2023-12-04T11:36:07;4.25;;;0.40;;
19621;SDS011;9958;33.196;-97.114;2023-12-04T11:38:37;4.30;;;0.40;;
19621;SDS011;9958;33.196;-97.114;2023-12-04T11:41:19;0.52;;;0.28;;
19621;SDS011;9958;33.196;-97.114;2023-12-04T11:43:48;1.00;;;0.22;;
19621;SDS011;9958;33.196;-97.114;2023-12-04T11:46:19;0.70;;;0.28;;
19621;SDS011;9958;33.196;-97.114;2023-12-04T11:48:48;0.28;;;0.28;;
19621;SDS011;9958;33.196;-97.114;2023-12-04T11:54:18;1.77;;;0.25;;
19621;SDS011;9958;33.196;-97.114;2023-12-04T11:59:49;1.15;;;0.43;;
19621;SDS011;9958;33.196;-97.114;2023-12-04T12:02:18;4.15;;;0.40;;
19621;SDS011;9958;33.196;-97.114;2023-12-04T12:04:47;0.98;;;0.30;;
19621;SDS011;9958;33.196;-97.114;2023-12-04T12:07:16;3.63;;;0.30;;
19621;SDS011;9958;33.196;-97.114;2023-12-04T12:09:44;0.80;;;0.40;;
19621;SDS011;9958;33.196;-97.114;2023-12-04T12:12:13;1.65;;;0.22;;
19621;SDS011;9958;33.196;-97.114;2023-12-04T12:14:43;0.43;;;0.38;;
19621;SDS011;9958;33.196;-97.114;2023-12-04T12:17:12;0.20;;;0.20;;
19621;SDS011;9958;33.196;-97.114;2023-12-04T12:19:40;0.20;;;0.20;;
19621;SDS011;9958;33.196;-97.114;2023-12-04T12:22:09;0.35;;;0.20;;
19621;SDS011;9958;33.196;-97.114;2023-12-04T12:24:39;5.78;;;0.60;;
19621;SDS011;9958;33.196;-97.114;2023-12-04T12:27:07;3.33;;;0.40;;
19621;SDS011;9958;33.196;-97.114;2023-12-04T12:29:35;0.10;;;0.10;;
19621;SDS011;9958;33.196;-97.114;2023-12-04T12:32:06;6.32;;;0.40;;
19621;SDS011;9958;33.196;-97.114;2023-12-04T12:34:34;1.10;;;0.35;;
19621;SDS011;9958;33.196;-97.114;2023-12-04T12:37:03;2.80;;;0.50;;
19621;SDS011;9958;33.196;-97.114;2023-12-04T12:39:31;0.60;;;0.28;;
19621;SDS011;9958;33.196;-97.114;2023-12-04T12:42:00;0.20;;;0.20;;
19621;SDS011;9958;33.196;-97.114;2023-12-04T12:44:36;0.70;;;0.40;;
19621;SDS011;9958;33.196;-97.114;2023-12-04T12:47:08;0.93;;;0.35;;
19621;SDS011;9958;33.196;-97.114;2023-12-04T12:49:36;0.30;;;0.20;;
19621;SDS011;9958;33.196;-97.114;2023-12-04T12:52:06;0.30;;;0.30;;
19621;SDS011;9958;33.196;-97.114;2023-12-04T12:54:36;0.20;;;0.20;;
19621;SDS011;9958;33.196;-97.114;2023-12-04T12:57:04;0.68;;;0.45;;
19621;SDS011;9958;33.196;-97.114;2023-12-04T12:59:34;1.13;;;0.38;;
19621;SDS011;9958;33.196;-97.114;2023-12-04T13:02:02;1.08;;;0.40;;
19621;SDS011;9958;33.196;-97.114;2023-12-04T13:04:36;1.55;;;0.25;;
19621;SDS011;9958;33.196;-97.114;2023-12-04T13:07:05;0.30;;;0.30;;
19621;SDS011;9958;33.196;-97.114;2023-12-04T13:09:34;2.75;;;0.50;;
19621;SDS011;9958;33.196;-97.114;2023-12-04T13:12:03;0.20;;;0.20;;
19621;SDS011;9958;33.196;-97.114;2023-12-04T13:14:33;1.10;;;0.20;;
19621;SDS011;9958;33.196;-97.114;2023-12-04T13:17:01;0.20;;;0.20;;
19621;SDS011;9958;33.196;-97.114;2023-12-04T13:19:31;0.10;;;0.10;;
19621;SDS011;9958;33.196;-97.114;2023-12-04T13:22:03;1.45;;;0.38;;
19621;SDS011;9958;33.196;-97.114;2023-12-04T13:24:32;0.20;;;0.20;;
19621;SDS011;9958;33.196;-97.114;2023-12-04T13:27:00;0.20;;;0.20;;
19621;SDS011;9958;33.196;-97.114;2023-12-04T13:29:29;0.45;;;0.20;;
19621;SDS011;9958;33.196;-97.114;2023-12-04T13:31:58;0.20;;;0.20;;
19621;SDS011;9958;33.196;-97.114;2023-12-04T13:34:27;1.90;;;0.30;;
19621;SDS011;9958;33.196;-97.114;2023-12-04T13:36:55;0.10;;;0.10;;
19621;SDS011;9958;33.196;-97.114;2023-12-04T13:39:26;3.00;;;0.50;;
19621;SDS011;9958;33.196;-97.114;2023-12-04T13:42:12;0.80;;;0.20;;
19621;SDS011;9958;33.196;-97.114;2023-12-04T13:44:58;1.08;;;0.60;;
19621;SDS011;9958;33.196;-97.114;2023-12-04T13:47:27;0.20;;;0.20;;
19621;SDS011;9958;33.196;-97.114;2023-12-04T13:49:55;0.32;;;0.32;;
19621;SDS011;9958;33.196;-97.114;2023-12-04T13:52:23;2.55;;;0.20;;
19621;SDS011;9958;33.196;-97.114;2023-12-04T13:54:57;0.10;;;0.10;;
19621;SDS011;9958;33.196;-97.114;2023-12-04T13:57:26;2.83;;;0.25;;
19621;SDS011;9958;33.196;-97.114;2023-12-04T13:59:58;1.45;;;0.30;;
19621;SDS011;9958;33.196;-97.114;2023-12-04T14:02:26;1.95;;;0.45;;
19621;SDS011;9958;33.196;-97.114;2023-12-04T14:04:55;0.47;;;0.40;;
19621;SDS011;9958;33.196;-97.114;2023-12-04T14:07:23;4.47;;;0.28;;
19621;SDS011;9958;33.196;-97.114;2023-12-04T14:09:51;5.78;;;0.55;;
19621;SDS011;9958;33.196;-97.114;2023-12-04T14:12:21;0.28;;;0.15;;
19621;SDS011;9958;33.196;-97.114;2023-12-04T14:14:50;2.55;;;0.22;;
19621;SDS011;9958;33.196;-97.114;2023-12-04T14:17:22;0.32;;;0.30;;
19621;SDS011;9958;33.196;-97.114;2023-12-04T14:19:51;0.82;;;0.35;;
19621;SDS011;9958;33.196;-97.114;2023-12-04T14:22:19;0.30;;;0.30;;
19621;SDS011;9958;33.196;-97.114;2023-12-04T14:24:47;0.20;;;0.20;;
19621;SDS011;9958;33.196;-97.114;2023-12-04T14:27:16;0.75;;;0.20;;
19621;SDS011;9958;33.196;-97.114;2023-12-04T14:29:46;0.20;;;0.20;;
19621;SDS011;9958;33.196;-97.114;2023-12-04T14:32:14;0.63;;;0.20;;
19621;SDS011;9958;33.196;-97.114;2023-12-04T14:34:45;3.83;;;0.30;;
19621;SDS011;9958;33.196;-97.114;2023-12-04T14:37:13;0.20;;;0.20;;
19621;SDS011;9958;33.196;-97.114;2023-12-04T14:39:41;0.20;;;0.20;;
19621;SDS011;9958;33.196;-97.114;2023-12-04T14:42:11;2.20;;;0.10;;
19621;SDS011;9958;33.196;-97.114;2023-12-04T14:44:39;1.23;;;0.30;;
19621;SDS011;9958;33.196;-97.114;2023-12-04T14:47:09;1.55;;;0.20;;
19621;SDS011;9958;33.196;-97.114;2023-12-04T14:49:37;0.20;;;0.20;;
19621;SDS011;9958;33.196;-97.114;2023-12-04T14:52:05;0.28;;;0.20;;